Time;durP1;ratioP1;P1;durP2;ratioP2;P2;SDS_P1;SDS_P2;PMS_P1;PMS_P2;Temp;Humidity;BMP_temperature;BMP_pressure;BME280_temperature;BME280_humidity;BME280_pressure;Samples;Min_cycle;Max_cycle;Signal;HPM_P1;HPM_P2
2023/11/13 00:00:43;;;;;;;10.63;5.93;;;;;;;6.85;100.00;100654.59;4954270;28;20052;-66
2023/11/13 00:03:31;;;;;;;11.98;5.55;;;;;;;6.87;100.00;100647.03;4935766;29;20048;-67
2023/11/13 00:06:19;;;;;;;13.45;5.80;;;;;;;6.89;100.00;100653.03;4935957;29;20424;-66
2023/11/13 00:09:07;;;;;;;11.93;5.90;;;;;;;6.90;100.00;100654.66;4935412;29;20048;-66
2023/11/13 00:11:55;;;;;;;10.77;6.00;;;;;;;6.90;100.00;100652.75;4948420;29;20043;-67
2023/11/13 00:14:43;;;;;;;10.63;5.50;;;;;;;6.94;100.00;100639.56;4927296;29;20051;-66
2023/11/13 00:17:31;;;;;;;11.82;6.25;;;;;;;6.94;100.00;100634.16;4934291;29;20043;-67
2023/11/13 00:20:19;;;;;;;10.02;5.60;;;;;;;6.94;100.00;100639.56;4909243;29;20048;-66
2023/11/13 00:23:08;;;;;;;12.15;5.68;;;;;;;6.95;100.00;100638.47;4935496;29;20114;-65
2023/11/13 00:25:56;;;;;;;10.82;5.95;;;;;;;6.97;100.00;100633.63;4934773;29;20467;-65
2023/11/13 00:28:45;;;;;;;12.00;5.90;;;;;;;6.98;100.00;100629.88;4916918;29;20044;-66
2023/11/13 00:31:33;;;;;;;13.07;6.32;;;;;;;6.96;100.00;100622.00;4896716;29;20055;-65
2023/11/13 00:34:22;;;;;;;11.68;5.90;;;;;;;6.90;100.00;100611.31;4935652;29;20052;-64
2023/11/13 00:37:11;;;;;;;10.73;6.10;;;;;;;6.83;100.00;100619.63;4926592;29;20055;-66
2023/11/13 00:39:59;;;;;;;9.13;5.50;;;;;;;6.82;100.00;100609.88;4919437;29;20048;-65
2023/11/13 00:42:48;;;;;;;10.82;5.88;;;;;;;6.83;100.00;100590.66;4920210;29;20079;-65
2023/11/13 00:45:36;;;;;;;10.00;5.72;;;;;;;6.85;100.00;100586.88;4935377;29;20048;-65
2023/11/13 00:48:24;;;;;;;12.25;6.32;;;;;;;6.88;100.00;100578.25;4934899;29;20048;-66
2023/11/13 00:51:13;;;;;;;9.50;5.72;;;;;;;6.91;100.00;100580.47;4908395;29;20514;-65
2023/11/13 00:54:01;;;;;;;9.40;5.38;;;;;;;6.91;100.00;100596.72;4934106;29;20052;-67
2023/11/13 00:56:49;;;;;;;10.30;5.55;;;;;;;6.93;100.00;100592.69;4922043;29;20059;-66
2023/11/13 00:59:37;;;;;;;10.82;5.60;;;;;;;6.96;100.00;100577.84;4934986;28;20045;-64
2023/11/13 01:02:26;;;;;;;9.43;5.43;;;;;;;6.99;100.00;100580.03;4935133;29;20493;-65
2023/11/13 01:05:14;;;;;;;12.43;5.72;;;;;;;7.02;100.00;100584.94;4920507;29;20054;-65
2023/11/13 01:08:03;;;;;;;14.85;5.65;;;;;;;7.01;100.00;100586.84;4934118;29;20568;-65
2023/11/13 01:10:52;;;;;;;11.27;5.65;;;;;;;6.96;100.00;100584.06;4932742;29;20500;-65
2023/11/13 01:13:42;;;;;;;9.23;5.32;;;;;;;6.94;100.00;100574.56;4920470;29;20477;-65
2023/11/13 01:16:30;;;;;;;13.45;5.50;;;;;;;6.95;100.00;100562.63;4934756;29;20047;-65
2023/11/13 01:19:18;;;;;;;12.32;5.90;;;;;;;6.96;100.00;100564.28;4922470;29;20055;-65
2023/11/13 01:22:06;;;;;;;9.48;5.35;;;;;;;6.95;100.00;100560.78;4937539;29;20095;-66
2023/11/13 01:24:54;;;;;;;13.27;5.68;;;;;;;6.96;100.00;100558.88;4911442;29;20167;-66
2023/11/13 01:27:43;;;;;;;10.63;5.78;;;;;;;6.97;100.00;100563.22;4938193;29;20046;-65
2023/11/13 01:30:31;;;;;;;11.13;5.38;;;;;;;6.99;100.00;100561.88;4923213;29;20055;-67
2023/11/13 01:33:21;;;;;;;8.35;5.07;;;;;;;6.99;100.00;100556.47;4925568;29;20047;-65
2023/11/13 01:36:10;;;;;;;9.05;5.10;;;;;;;6.99;100.00;100544.81;4932879;29;20055;-67
2023/11/13 01:38:58;;;;;;;11.63;6.07;;;;;;;6.99;100.00;100537.50;4938577;29;20075;-65
2023/11/13 01:41:46;;;;;;;10.48;5.60;;;;;;;7.00;100.00;100546.47;4949565;28;20613;-65
2023/11/13 01:44:34;;;;;;;9.85;5.28;;;;;;;7.00;100.00;100551.91;4916248;29;20054;-64
2023/11/13 01:47:22;;;;;;;8.82;5.10;;;;;;;6.99;100.00;100545.63;4939379;29;20047;-65
2023/11/13 01:50:10;;;;;;;9.32;5.50;;;;;;;7.00;100.00;100549.19;4941294;29;20056;-65
2023/11/13 01:52:59;;;;;;;9.88;5.32;;;;;;;7.00;100.00;100547.28;4922227;29;20075;-64
2023/11/13 01:55:48;;;;;;;10.15;4.55;;;;;;;7.02;100.00;100547.88;4915526;29;20060;-65
2023/11/13 01:58:37;;;;;;;10.90;5.43;;;;;;;7.02;100.00;100541.59;4910257;29;20040;-65
2023/11/13 02:01:25;;;;;;;8.95;5.10;;;;;;;7.02;100.00;100544.31;4926356;29;20047;-64
2023/11/13 02:04:14;;;;;;;12.90;5.45;;;;;;;7.01;100.00;100537.28;4933105;29;20072;-65
2023/11/13 02:07:03;;;;;;;9.40;5.03;;;;;;;6.99;100.00;100544.81;4926688;29;20048;-64
2023/11/13 02:09:51;;;;;;;10.25;5.53;;;;;;;6.94;100.00;100542.88;4937192;29;20071;-64
2023/11/13 02:12:39;;;;;;;8.80;4.85;;;;;;;6.91;100.00;100543.38;4905697;29;20063;-63
2023/11/13 02:15:27;;;;;;;9.45;5.25;;;;;;;6.90;100.00;100540.91;4931437;29;20108;-64
2023/11/13 02:18:15;;;;;;;9.38;5.18;;;;;;;6.91;100.00;100542.56;4932610;29;20047;-65
2023/11/13 02:21:04;;;;;;;10.50;5.32;;;;;;;6.94;100.00;100542.88;4910175;29;20489;-67
2023/11/13 02:23:52;;;;;;;11.13;5.20;;;;;;;6.96;100.00;100543.44;4910659;29;20051;-65
2023/11/13 02:26:41;;;;;;;8.52;4.80;;;;;;;6.97;100.00;100530.72;4936818;29;20051;-65
2023/11/13 02:29:29;;;;;;;11.07;5.13;;;;;;;7.00;100.00;100520.22;4949171;29;20054;-65
2023/11/13 02:32:21;;;;;;;10.27;5.57;;;;;;;7.02;100.00;100515.38;4933957;29;20182;-65
2023/11/13 02:35:09;;;;;;;11.85;5.25;;;;;;;7.04;100.00;100510.50;4936333;29;20043;-66
2023/11/13 02:37:57;;;;;;;8.50;4.80;;;;;;;7.05;100.00;100505.91;4923355;29;20187;-65
2023/11/13 02:40:45;;;;;;;8.45;4.82;;;;;;;7.05;100.00;100500.50;4936519;29;20111;-67
2023/11/13 02:43:33;;;;;;;9.43;5.20;;;;;;;7.06;100.00;100504.00;4926523;29;20083;-64
2023/11/13 02:46:21;;;;;;;8.82;4.93;;;;;;;7.05;100.00;100505.91;4935650;29;20516;-65
2023/11/13 02:49:09;;;;;;;8.80;5.22;;;;;;;7.06;100.00;100504.81;4936633;29;20138;-65
2023/11/13 02:51:57;;;;;;;10.57;5.75;;;;;;;7.05;100.00;100492.38;4934836;28;20048;-64
2023/11/13 02:54:45;;;;;;;9.43;4.97;;;;;;;7.05;100.00;100484.25;4948216;29;20064;-65
2023/11/13 02:57:33;;;;;;;8.68;5.18;;;;;;;7.04;100.00;100464.44;4936767;29;20051;-64
2023/11/13 03:00:22;;;;;;;10.07;4.70;;;;;;;7.05;100.00;100468.00;4922570;28;20182;-66
2023/11/13 03:03:10;;;;;;;10.68;5.75;;;;;;;7.08;100.00;100472.09;4923520;29;20449;-66
2023/11/13 03:05:58;;;;;;;7.95;4.90;;;;;;;7.10;100.00;100476.16;4937565;29;20056;-66
2023/11/13 03:08:46;;;;;;;9.18;5.22;;;;;;;7.10;100.00;100486.19;4909930;29;20054;-65
2023/11/13 03:11:34;;;;;;;9.02;5.45;;;;;;;7.09;100.00;100496.19;4910520;29;20043;-65
2023/11/13 03:14:22;;;;;;;9.75;5.32;;;;;;;7.09;100.00;100506.22;4910237;29;20527;-66
2023/11/13 03:17:10;;;;;;;13.07;5.50;;;;;;;7.08;100.00;100505.41;4949862;29;20142;-66
2023/11/13 03:19:58;;;;;;;9.55;5.07;;;;;;;7.08;100.00;100508.09;4937126;28;20507;-66
2023/11/13 03:22:47;;;;;;;10.68;5.70;;;;;;;7.08;100.00;100510.81;4935578;29;20040;-65
2023/11/13 03:25:35;;;;;;;8.73;5.18;;;;;;;7.09;100.00;100507.03;4930192;29;20138;-66
2023/11/13 03:28:23;;;;;;;9.13;5.10;;;;;;;7.09;100.00;100507.03;4931965;29;20103;-66
2023/11/13 03:31:13;;;;;;;10.68;5.30;;;;;;;7.07;100.00;100503.78;4935623;28;20055;-65
2023/11/13 03:34:01;;;;;;;8.65;5.18;;;;;;;7.08;100.00;100501.88;4936234;29;20052;-64
2023/11/13 03:36:49;;;;;;;10.13;5.30;;;;;;;7.09;100.00;100498.09;4922934;29;20111;-64
2023/11/13 03:39:37;;;;;;;9.95;5.20;;;;;;;7.11;100.00;100501.38;4922411;29;20051;-65
2023/11/13 03:42:25;;;;;;;9.55;5.40;;;;;;;7.11;100.00;100504.88;4935030;29;20048;-66
2023/11/13 03:45:13;;;;;;;8.52;5.40;;;;;;;7.13;100.00;100507.34;4936685;29;20062;-67
2023/11/13 03:48:01;;;;;;;12.02;5.60;;;;;;;7.12;100.00;100509.25;4935968;29;20580;-64
2023/11/13 03:50:49;;;;;;;14.80;4.95;;;;;;;7.13;100.00;100494.63;4946265;29;20054;-65
2023/11/13 03:53:37;;;;;;;9.73;5.20;;;;;;;7.14;100.00;100482.69;4947769;28;20111;-65
2023/11/13 03:56:27;;;;;;;9.65;5.07;;;;;;;7.14;100.00;100504.38;4950388;29;20079;-65
2023/11/13 03:59:15;;;;;;;10.60;5.32;;;;;;;7.14;100.00;100511.69;4920131;29;20138;-66
2023/11/13 04:02:03;;;;;;;11.68;5.53;;;;;;;7.15;100.00;100510.63;4923595;29;20150;-65
2023/11/13 04:04:51;;;;;;;10.48;5.82;;;;;;;7.16;100.00;100502.22;4938205;28;20059;-65
2023/11/13 04:07:39;;;;;;;11.80;5.28;;;;;;;7.14;100.00;100493.53;4922408;29;20412;-65
2023/11/13 04:10:28;;;;;;;10.88;5.18;;;;;;;7.14;100.00;100501.66;4936011;29;20509;-65
2023/11/13 04:13:18;;;;;;;9.55;5.35;;;;;;;7.14;100.00;100509.78;4933627;29;20047;-64
2023/11/13 04:16:07;;;;;;;9.43;4.53;;;;;;;7.15;100.00;100492.47;4953692;28;20519;-65
2023/11/13 04:18:56;;;;;;;8.43;4.68;;;;;;;7.15;100.00;100478.94;4936320;29;20061;-66
2023/11/13 04:21:44;;;;;;;8.25;5.03;;;;;;;7.16;100.00;100475.13;4935523;29;20051;-66
2023/11/13 04:24:32;;;;;;;9.50;5.10;;;;;;;7.14;100.00;100447.47;4935855;29;20059;-65
2023/11/13 04:27:20;;;;;;;8.77;4.90;;;;;;;7.15;100.00;100454.56;4935718;29;20055;-66
2023/11/13 04:30:08;;;;;;;9.25;5.78;;;;;;;7.14;100.00;100455.59;4920596;29;20051;-65
2023/11/13 04:32:56;;;;;;;9.00;5.28;;;;;;;7.14;100.00;100450.19;4935248;29;20161;-65
2023/11/13 04:35:44;;;;;;;9.77;4.82;;;;;;;7.15;100.00;100446.41;4920715;29;20047;-65
2023/11/13 04:38:36;;;;;;;11.27;5.15;;;;;;;7.15;100.00;100434.78;4935550;29;20059;-65
2023/11/13 04:41:24;;;;;;;11.35;5.65;;;;;;;7.15;100.00;100435.59;4933300;28;20414;-67
2023/11/13 04:44:12;;;;;;;9.93;5.07;;;;;;;7.15;100.00;100422.03;4930890;29;20138;-65
2023/11/13 04:47:00;;;;;;;12.45;5.07;;;;;;;7.15;100.00;100411.19;4939057;28;20560;-65
2023/11/13 04:49:49;;;;;;;9.88;5.68;;;;;;;7.15;100.00;100413.91;4938880;29;20062;-65
2023/11/13 04:52:38;;;;;;;12.90;6.10;;;;;;;7.10;100.00;100421.19;4921668;29;20126;-65
2023/11/13 04:55:26;;;;;;;10.88;5.72;;;;;;;7.07;100.00;100413.53;4939184;28;20419;-65
2023/11/13 04:58:14;;;;;;;11.50;5.90;;;;;;;7.07;100.00;100413.53;4939173;29;20064;-65
2023/11/13 05:01:02;;;;;;;12.88;5.93;;;;;;;7.08;100.00;100412.47;4920422;29;20135;-67
2023/11/13 05:03:50;;;;;;;10.75;5.78;;;;;;;7.07;100.00;100406.25;4906386;29;20131;-66
2023/11/13 05:06:43;;;;;;;12.38;6.15;;;;;;;7.09;100.00;100408.69;4906850;29;20237;-65
2023/11/13 05:09:31;;;;;;;10.63;5.65;;;;;;;7.08;100.00;100399.75;4911421;28;20051;-65
2023/11/13 05:12:19;;;;;;;12.05;6.43;;;;;;;7.08;100.00;100401.66;4938955;29;20381;-65
2023/11/13 05:15:07;;;;;;;12.68;5.82;;;;;;;7.08;100.00;100404.34;4939585;29;20074;-66
2023/11/13 05:17:55;;;;;;;12.93;6.07;;;;;;;7.07;100.00;100400.84;4924506;29;20401;-65
2023/11/13 05:20:45;;;;;;;14.85;6.88;;;;;;;7.07;100.00;100400.00;4938079;29;20048;-65
2023/11/13 05:23:33;;;;;;;12.05;6.30;;;;;;;7.08;100.00;100391.63;4918371;29;20493;-66
2023/11/13 05:26:21;;;;;;;12.10;6.00;;;;;;;7.11;100.00;100390.28;4919202;29;20131;-66
2023/11/13 05:29:10;;;;;;;12.05;6.28;;;;;;;7.12;100.00;100381.91;4940587;29;20499;-66
2023/11/13 05:31:58;;;;;;;13.00;6.13;;;;;;;7.14;100.00;100382.47;4913348;29;20051;-65
2023/11/13 05:34:48;;;;;;;12.45;6.20;;;;;;;7.15;100.00;100375.97;4924583;29;20043;-65
2023/11/13 05:37:36;;;;;;;12.23;6.32;;;;;;;7.17;100.00;100365.72;4937939;29;20074;-64
2023/11/13 05:40:25;;;;;;;16.52;7.22;;;;;;;7.18;100.00;100369.22;4937982;29;20086;-65
2023/11/13 05:43:14;;;;;;;11.95;7.07;;;;;;;7.18;100.00;100367.34;4925210;29;20127;-65
2023/11/13 05:46:02;;;;;;;14.55;6.88;;;;;;;7.18;100.00;100361.91;4938438;29;20062;-64
2023/11/13 05:48:50;;;;;;;13.38;7.30;;;;;;;7.20;100.00;100364.38;4937504;29;20461;-64
2023/11/13 05:51:39;;;;;;;12.55;6.65;;;;;;;7.22;100.00;100363.03;4937676;29;20056;-65
2023/11/13 05:54:27;;;;;;;11.52;6.70;;;;;;;7.24;100.00;100360.91;4948656;29;20572;-65
2023/11/13 05:57:16;;;;;;;13.38;7.57;;;;;;;7.28;100.00;100368.50;4949098;29;20063;-66
2023/11/13 06:00:05;;;;;;;13.30;6.68;;;;;;;7.29;100.00;100376.38;4950284;28;20075;-65
2023/11/13 06:02:59;;;;;;;14.65;7.65;;;;;;;7.30;100.00;100361.75;4937551;29;20052;-64
2023/11/13 06:05:47;;;;;;;15.70;7.80;;;;;;;7.30;100.00;100361.75;4936845;29;20084;-66
2023/11/13 06:08:35;;;;;;;15.13;8.20;;;;;;;7.30;100.00;100350.91;4924476;29;20457;-64
2023/11/13 06:11:26;;;;;;;14.25;7.80;;;;;;;7.32;100.00;100356.09;4936712;29;20130;-67
2023/11/13 06:14:14;;;;;;;12.65;7.32;;;;;;;7.33;100.00;100349.56;4226213;29;10001007;-65
2023/11/13 06:17:03;;;;;;;14.18;7.93;;;;;;;7.33;100.00;100350.38;4915373;29;20428;-65
2023/11/13 06:19:53;;;;;;;15.32;8.15;;;;;;;7.34;100.00;100345.81;4901800;29;20208;-66
2023/11/13 06:22:47;;;;;;;14.88;7.82;;;;;;;7.32;100.00;100334.41;4934482;28;20044;-66
2023/11/13 06:25:36;;;;;;;14.57;8.05;;;;;;;7.32;100.00;100331.69;4933918;29;20139;-66
2023/11/13 06:28:24;;;;;;;14.20;8.10;;;;;;;7.32;100.00;100335.22;4934554;29;20052;-66
2023/11/13 06:31:13;;;;;;;13.27;8.23;;;;;;;7.31;100.00;100332.75;4941405;29;20052;-64
2023/11/13 06:34:04;;;;;;;19.65;8.48;;;;;;;7.30;100.00;100328.41;4945910;29;20058;-63
2023/11/13 06:36:52;;;;;;;14.00;7.63;;;;;;;7.32;100.00;100332.50;4937444;29;20383;-65
2023/11/13 06:39:44;;;;;;;12.45;7.90;;;;;;;7.34;100.00;100326.84;4936764;29;20051;-67
2023/11/13 06:42:32;;;;;;;15.57;8.23;;;;;;;7.36;100.00;100332.78;4917612;29;20055;-65
2023/11/13 06:45:20;;;;;;;13.38;7.63;;;;;;;7.38;100.00;100336.06;4924574;29;20064;-64
2023/11/13 06:48:08;;;;;;;12.60;7.25;;;;;;;7.39;100.00;100343.13;4915950;29;20067;-66
2023/11/13 06:50:57;;;;;;;15.68;7.50;;;;;;;7.38;100.00;100342.28;4923286;29;20059;-66
2023/11/13 06:53:45;;;;;;;12.93;7.53;;;;;;;7.41;100.00;100335.56;4926980;29;20067;-65
2023/11/13 06:56:33;;;;;;;13.60;7.43;;;;;;;7.42;100.00;100331.78;4926178;29;20238;-67
2023/11/13 06:59:21;;;;;;;13.07;7.13;;;;;;;7.45;100.00;100325.81;4931873;29;20409;-66
2023/11/13 07:02:10;;;;;;;12.75;7.53;;;;;;;7.46;100.00;100332.91;4890663;29;20044;-66
2023/11/13 07:04:59;;;;;;;14.30;7.22;;;;;;;7.47;100.00;100321.78;4920113;29;20050;-66
2023/11/13 07:07:48;;;;;;;15.50;7.53;;;;;;;7.47;100.00;100318.25;4889320;29;20052;-67
2023/11/13 07:10:38;;;;;;;14.43;7.32;;;;;;;7.49;100.00;100301.75;4914667;29;20059;-66
2023/11/13 07:13:26;;;;;;;12.98;6.97;;;;;;;7.49;100.00;100307.97;4888981;29;20075;-66
2023/11/13 07:16:16;;;;;;;10.48;6.32;;;;;;;7.52;100.00;100295.78;4900409;29;20207;-67
2023/11/13 07:19:04;;;;;;;9.25;6.13;;;;;;;7.55;100.00;100289.84;4927243;29;20496;-66
2023/11/13 07:21:52;;;;;;;11.90;7.15;;;;;;;7.59;100.00;100291.78;4930762;29;20057;-64
2023/11/13 07:24:40;;;;;;;12.75;7.03;;;;;;;7.64;100.00;100285.56;4906163;29;20543;-66
2023/11/13 07:27:28;;;;;;;12.32;7.05;;;;;;;7.67;100.00;100285.03;4935660;29;20047;-66
2023/11/13 07:30:16;;;;;;;10.65;6.72;;;;;;;7.67;100.00;100285.88;4934220;29;20130;-66
2023/11/13 07:33:04;;;;;;;13.02;6.20;;;;;;;7.72;100.00;100281.53;4935680;29;20052;-66
2023/11/13 07:35:53;;;;;;;11.93;6.32;;;;;;;7.76;100.00;100272.63;4937349;29;20134;-65
2023/11/13 07:38:43;;;;;;;12.35;6.18;;;;;;;7.81;100.00;100269.13;4934187;29;20071;-66
2023/11/13 07:41:33;;;;;;;12.18;5.63;;;;;;;7.85;100.00;100259.38;4919479;29;20059;-66
2023/11/13 07:44:21;;;;;;;13.60;6.03;;;;;;;7.88;100.00;100250.72;4934468;29;20059;-65
2023/11/13 07:47:09;;;;;;;13.80;6.22;;;;;;;7.91;100.00;100242.03;4947545;29;20156;-65
2023/11/13 07:49:58;;;;;;;12.93;6.15;;;;;;;7.98;100.00;100236.38;4948589;29;20048;-65
2023/11/13 07:52:46;;;;;;;13.52;5.85;;;;;;;7.98;100.00;100234.47;4935180;29;20044;-67
2023/11/13 07:55:36;;;;;;;12.90;4.50;;;;;;;8.04;100.00;100230.72;4935308;29;20151;-65
2023/11/13 07:58:25;;;;;;;9.65;4.45;;;;;;;8.08;100.00;100228.28;4919930;29;20369;-65
2023/11/13 08:01:14;;;;;;;11.65;5.03;;;;;;;8.15;100.00;100219.88;4921547;29;20048;-65
2023/11/13 08:04:03;;;;;;;10.07;4.05;;;;;;;8.19;100.00;100215.56;4922321;29;20066;-65
2023/11/13 08:06:51;;;;;;;10.48;3.85;;;;;;;8.21;100.00;100221.56;4935997;29;20055;-66
2023/11/13 08:09:40;;;;;;;11.15;4.47;;;;;;;8.25;100.00;100222.63;4921358;29;20048;-66
2023/11/13 08:12:28;;;;;;;13.38;3.78;;;;;;;8.33;100.00;100219.41;4935940;29;20063;-65
2023/11/13 08:15:17;;;;;;;10.00;3.78;;;;;;;8.36;100.00;100227.00;4921928;29;20186;-66
2023/11/13 08:18:05;;;;;;;12.80;4.10;;;;;;;8.48;100.00;100218.66;4938183;28;20107;-66
2023/11/13 08:20:59;;;;;;;11.15;3.95;;;;;;;8.52;100.00;100212.41;4923313;29;20477;-64
2023/11/13 08:23:47;;;;;;;9.27;3.53;;;;;;;8.52;100.00;100204.28;4932606;29;20079;-66
2023/11/13 08:26:35;;;;;;;9.77;3.70;;;;;;;8.53;100.00;100195.03;4939384;29;20071;-66
2023/11/13 08:29:25;;;;;;;12.85;4.53;;;;;;;8.52;100.00;100187.16;4940619;29;20120;-65
2023/11/13 08:32:13;;;;;;;12.20;4.03;;;;;;;8.53;100.00;100181.44;4960414;28;20111;-65
2023/11/13 08:35:04;;;;;;;12.85;4.30;;;;;;;8.55;100.00;100180.38;4957556;29;20095;-64
2023/11/13 08:37:52;;;;;;;10.50;4.43;;;;;;;8.60;100.00;100164.91;4928562;29;20054;-65
2023/11/13 08:40:40;;;;;;;14.82;4.82;;;;;;;8.59;100.00;100173.34;4942581;29;20044;-67
2023/11/13 08:43:29;;;;;;;12.32;4.22;;;;;;;8.61;100.00;100173.84;4942240;29;20052;-66
2023/11/13 08:46:17;;;;;;;17.85;4.53;;;;;;;8.62;100.00;100178.22;4940786;29;20052;-65
2023/11/13 08:49:06;;;;;;;15.63;4.60;;;;;;;8.62;100.00;100167.34;4927633;29;20836;-65
2023/11/13 08:51:58;;;;;;;15.38;4.40;;;;;;;8.64;100.00;100157.03;4941278;29;20485;-64
2023/11/13 08:54:46;;;;;;;11.93;4.35;;;;;;;8.66;100.00;100135.84;4930737;29;20063;-64
2023/11/13 08:57:36;;;;;;;12.75;3.95;;;;;;;8.66;100.00;100127.69;4941533;29;20043;-65
2023/11/13 09:00:29;;;;;;;13.73;4.45;;;;;;;8.69;100.00;100119.81;4939611;28;20078;-65
2023/11/13 09:03:17;;;;;;;16.50;4.60;;;;;;;8.76;100.00;100116.84;4938672;29;20047;-65
2023/11/13 09:06:08;;;;;;;13.27;4.03;;;;;;;8.73;100.00;100101.06;4926180;29;20047;-65
2023/11/13 09:08:56;;;;;;;12.55;3.70;;;;;;;8.69;100.00;100091.84;4938633;29;20503;-66
2023/11/13 09:11:46;;;;;;;11.55;3.95;;;;;;;8.72;100.00;100089.41;4925164;29;20062;-65
2023/11/13 09:14:35;;;;;;;13.52;3.97;;;;;;;8.72;100.00;100075.00;4924151;29;20058;-65
2023/11/13 09:17:23;;;;;;;12.13;3.80;;;;;;;8.72;100.00;100072.28;4939311;28;20059;-65
2023/11/13 09:20:15;;;;;;;13.13;4.32;;;;;;;8.73;100.00;100050.31;4925705;28;20059;-65
2023/11/13 09:23:06;;;;;;;17.05;4.03;;;;;;;8.75;100.00;100050.00;4925039;29;20110;-65
2023/11/13 09:25:54;;;;;;;15.15;4.22;;;;;;;8.72;100.00;100037.78;4938005;29;20523;-65
2023/11/13 09:28:42;;;;;;;11.18;3.42;;;;;;;8.71;100.00;100022.59;4924178;29;20070;-65
2023/11/13 09:31:30;;;;;;;11.68;3.25;;;;;;;8.71;100.00;100013.66;4949952;29;20190;-65
2023/11/13 09:34:18;;;;;;;12.93;3.53;;;;;;;8.73;100.00;99997.84;4950802;29;20369;-66
2023/11/13 09:37:08;;;;;;;12.57;3.72;;;;;;;8.73;100.00;99997.84;4938327;29;20070;-65
2023/11/13 09:39:56;;;;;;;10.95;3.30;;;;;;;8.75;100.00;99990.25;4931185;29;20271;-65
2023/11/13 09:43:12;;;;;;;9.32;2.95;;;;;;;8.77;100.00;99976.41;4931208;29;20048;-65
2023/11/13 09:46:04;;;;;;;7.28;2.60;;;;;;;8.75;100.00;99995.69;4917808;29;20052;-65
2023/11/13 09:48:55;;;;;;;8.75;2.75;;;;;;;8.75;100.00;99979.38;4922836;29;20126;-65
2023/11/13 09:51:43;;;;;;;8.05;3.10;;;;;;;8.74;100.00;99975.06;4938520;29;20173;-65
2023/11/13 09:54:32;;;;;;;6.07;2.67;;;;;;;8.75;100.00;99984.81;4924108;29;21308;-66
2023/11/13 09:57:20;;;;;;;8.63;2.92;;;;;;;8.76;100.00;99978.31;4897520;29;20055;-65
2023/11/13 10:00:16;;;;;;;6.60;2.65;;;;;;;8.74;100.00;99947.91;4950068;29;20576;-66
2023/11/13 10:03:04;;;;;;;7.18;2.50;;;;;;;8.76;100.00;99942.19;4949188;29;20044;-66
2023/11/13 10:05:53;;;;;;;7.45;2.47;;;;;;;8.78;100.00;99940.00;4938935;28;20070;-65
2023/11/13 10:08:47;;;;;;;5.82;2.40;;;;;;;8.81;100.00;99944.91;4923656;29;20127;-65
2023/11/13 10:11:35;;;;;;;7.15;2.65;;;;;;;8.83;100.00;99938.09;4950615;29;20048;-67
2023/11/13 10:14:25;;;;;;;6.78;2.75;;;;;;;8.84;100.00;99923.41;4950821;28;20516;-65
2023/11/13 10:17:13;;;;;;;5.13;2.30;;;;;;;8.85;100.00;99908.75;4911775;29;20052;-65
2023/11/13 10:20:04;;;;;;;5.72;2.63;;;;;;;8.87;100.00;99917.41;4938176;29;20059;-66
2023/11/13 10:23:06;;;;;;;4.75;2.50;;;;;;;8.87;100.00;99920.13;4935814;29;20048;-66
2023/11/13 10:25:56;;;;;;;5.65;2.40;;;;;;;8.86;100.00;99904.94;4936648;29;20057;-66
2023/11/13 10:28:45;;;;;;;6.05;2.78;;;;;;;8.87;100.00;99901.09;4936306;29;20052;-65
2023/11/13 10:31:48;;;;;;;7.00;2.97;;;;;;;8.92;100.00;99892.97;4936033;28;20066;-65
2023/11/13 10:34:44;;;;;;;5.03;2.42;;;;;;;8.92;100.00;99886.69;4925628;29;20127;-65
2023/11/13 10:37:33;;;;;;;7.28;2.60;;;;;;;8.90;100.00;99884.28;4936529;29;20044;-65
2023/11/13 10:40:27;;;;;;;6.90;2.80;;;;;;;8.91;100.00;99869.59;4924062;29;20142;-64
2023/11/13 10:43:28;;;;;;;7.28;2.72;;;;;;;8.91;100.00;99866.88;4936693;29;20202;-65
2023/11/13 10:46:28;;;;;;;8.07;3.17;;;;;;;8.91;100.00;99845.13;4937827;28;20051;-65
2023/11/13 10:49:18;;;;;;;7.72;3.08;;;;;;;8.96;100.00;99838.88;4939624;29;20122;-63
2023/11/13 10:52:06;;;;;;;8.60;2.95;;;;;;;8.97;100.00;99824.16;4939401;29;20111;-63
2023/11/13 10:54:57;;;;;;;10.25;3.05;;;;;;;8.96;100.00;99811.69;4944300;29;20064;-63
2023/11/13 10:57:46;;;;;;;7.78;3.28;;;;;;;8.97;100.00;99810.59;4935327;29;20044;-65
2023/11/13 11:00:34;;;;;;;9.77;3.53;;;;;;;8.96;100.00;99801.63;4946234;29;20047;-64
2023/11/13 11:03:24;;;;;;;7.53;3.20;;;;;;;9.02;100.00;99788.00;4939540;29;20051;-65
2023/11/13 11:06:19;;;;;;;12.57;3.85;;;;;;;9.07;100.00;99777.13;4928671;29;20146;-64
2023/11/13 11:09:12;;;;;;;9.40;3.90;;;;;;;9.06;100.00;99770.06;4940050;29;20062;-66
2023/11/13 11:12:03;;;;;;;6.70;2.90;;;;;;;9.11;100.00;99759.94;4924619;29;20048;-65
2023/11/13 11:15:15;;;;;;;9.45;3.30;;;;;;;9.17;100.00;99747.16;4922874;29;20066;-65
2023/11/13 11:18:17;;;;;;;13.25;3.97;;;;;;;9.20;100.00;99743.84;4922837;29;20206;-65
2023/11/13 11:21:08;;;;;;;10.98;3.88;;;;;;;9.22;100.00;99733.50;4910315;29;20055;-65
2023/11/13 11:24:11;;;;;;;9.88;3.15;;;;;;;9.25;100.00;99727.50;4936507;29;20118;-65
2023/11/13 11:27:00;;;;;;;13.98;4.70;;;;;;;9.33;100.00;99729.59;4248837;29;10001103;-66
2023/11/13 11:29:48;;;;;;;10.30;3.70;;;;;;;9.36;100.00;99715.44;4906205;29;20124;-66
2023/11/13 11:32:36;;;;;;;10.65;3.63;;;;;;;9.41;100.00;99725.44;4933977;29;20514;-65
2023/11/13 11:35:29;;;;;;;12.93;3.88;;;;;;;9.46;100.00;99700.94;4917697;29;20516;-65
2023/11/13 11:38:26;;;;;;;12.77;4.15;;;;;;;9.52;100.00;99685.34;4904985;29;20134;-65
2023/11/13 11:41:38;;;;;;;13.15;3.95;;;;;;;9.64;100.00;99674.88;4906454;29;20050;-66
2023/11/13 11:44:29;;;;;;;12.00;4.15;;;;;;;9.68;100.00;99675.94;4933428;29;20043;-66
2023/11/13 11:47:27;;;;;;;12.18;4.38;;;;;;;9.81;100.00;99667.06;4917470;29;20048;-65
2023/11/13 11:50:17;;;;;;;12.57;4.20;;;;;;;9.90;100.00;99648.16;4932137;29;20048;-65
2023/11/13 11:53:05;;;;;;;12.25;4.07;;;;;;;9.93;100.00;99644.06;4931469;29;20047;-66
2023/11/13 11:55:53;;;;;;;14.98;4.50;;;;;;;9.99;100.00;99635.53;4911786;29;20365;-65
2023/11/13 11:58:41;;;;;;;12.00;4.20;;;;;;;10.03;100.00;99627.63;4933923;29;20095;-66
2023/11/13 12:01:29;;;;;;;14.88;4.85;;;;;;;10.09;100.00;99628.34;4934404;29;20397;-65
2023/11/13 12:04:17;;;;;;;13.88;5.03;;;;;;;10.09;100.00;99612.00;4920933;29;20091;-65
2023/11/13 12:07:09;;;;;;;13.35;4.45;;;;;;;10.09;100.00;99596.47;4920880;29;20058;-65
2023/11/13 12:09:57;;;;;;;11.75;4.18;;;;;;;10.10;100.00;99595.41;4936332;29;20047;-65
2023/11/13 12:12:47;;;;;;;13.77;4.25;;;;;;;10.14;100.00;99562.94;4936945;29;20059;-64
2023/11/13 12:15:36;;;;;;;11.32;3.47;;;;;;;10.18;100.00;99577.59;4924681;29;20047;-64
2023/11/13 12:18:24;;;;;;;12.70;4.15;;;;;;;10.21;100.00;99560.66;4939207;29;20107;-65
2023/11/13 12:21:12;;;;;;;11.20;4.03;;;;;;;10.27;100.00;99539.59;4922091;29;20492;-65
2023/11/13 12:24:01;;;;;;;9.82;3.90;;;;;;;10.33;100.00;99533.00;4934741;29;20384;-65
2023/11/13 12:26:49;;;;;;;11.18;3.95;;;;;;;10.42;100.00;99528.50;4935074;29;20051;-66
2023/11/13 12:29:37;;;;;;;9.32;3.33;;;;;;;10.49;100.00;99541.72;4906618;29;20052;-64
2023/11/13 12:32:26;;;;;;;11.18;3.50;;;;;;;10.51;100.00;99564.84;4933913;29;20050;-65
2023/11/13 12:35:17;;;;;;;10.60;3.80;;;;;;;10.53;100.00;99543.53;4935138;28;20135;-64
2023/11/13 12:38:07;;;;;;;15.38;4.43;;;;;;;10.58;100.00;99535.28;4934974;29;20044;-65
2023/11/13 12:40:55;;;;;;;10.13;3.85;;;;;;;10.61;100.00;99529.25;4935287;28;20079;-65
2023/11/13 12:43:43;;;;;;;9.90;3.38;;;;;;;10.70;100.00;99509.47;4921823;29;20517;-65
2023/11/13 12:46:31;;;;;;;12.57;4.25;;;;;;;10.77;100.00;99520.78;4946885;29;20100;-65
2023/11/13 12:49:21;;;;;;;8.60;3.08;;;;;;;10.77;100.00;99526.22;4934315;29;20056;-64
2023/11/13 12:52:15;;;;;;;9.95;3.30;;;;;;;10.78;100.00;99511.50;4922450;29;20048;-64
2023/11/13 12:55:11;;;;;;;9.40;3.22;;;;;;;10.83;100.00;99509.47;4908579;29;20059;-65
2023/11/13 12:58:06;;;;;;;;;;;;;;;10.90;100.00;99525.44;4922116;29;20419;-64
2023/11/13 13:00:54;;;;;;;8.70;3.17;;;;;;;10.96;100.00;99535.13;4922608;29;19927;-66
2023/11/13 13:03:44;;;;;;;10.13;3.40;;;;;;;11.09;100.00;99537.06;4922074;29;20130;-65